NCAR-RAP Real-Time Weather Data

Output produced by METARs form (12 August 2020  18:23 UTC)
found at http://weather.rap.ucar.edu/surface/
 
KCHS 121756Z 16006KT 10SM SCT035 SCT250 32/24 A2998 RMK AO2 SLP152 T03170244 10322 20256 58010
KCHS 121656Z 17006KT 10SM SCT030 SCT250 32/24 A3000 RMK AO2 SLP159 T03170239
KCHS 121556Z 12004KT 10SM SCT025 SCT250 31/24 A3001 RMK AO2 SLP160 T03060239
KCHS 121456Z VRB04KT 10SM FEW025 SCT250 30/24 A3001 RMK AO2 SLP163 T03000239 51007
KCHS 121356Z VRB03KT 10SM FEW020 FEW250 29/23 A3001 RMK AO2 SLP161 T02890233
KCHS 121256Z 00000KT 10SM FEW040 FEW080 SCT250 26/23 A3002 RMK AO2 SLP164 T02610233
KCHS 121156Z 29005KT 10SM FEW040 FEW250 26/23 A2999 RMK AO2 SLP155 CB DSNT SE 70030 T02560228 10261 20239 51013
KCHS 121056Z 29003KT 10SM SCT060 25/23 A2998 RMK AO2 SLP153 T02500228
KCHS 120956Z 00000KT 10SM FEW040 FEW065 24/23 A2997 RMK AO2 SLP147 OCNL LTGIC DSNT SE CB DSNT SE T02440228
KCHS 120856Z 26003KT 10SM FEW040 SCT060 SCT200 25/23 A2996 RMK AO2 SLP143 T02500228 55004
KCHS 120756Z 27004KT 10SM FEW040 FEW080 26/23 A2995 RMK AO2 SLP142 T02560233
KCHS 120656Z 24007KT 10SM FEW045 FEW080 26/24 A2996 RMK AO2 SLP143 T02610239
KCHS 120556Z 00000KT 10SM FEW030 FEW050 26/24 A2997 RMK AO2 SLP147 60005 T02610244 10278 20261 58008
KCHS 120456Z 00000KT 10SM FEW040 SCT050 27/25 A2998 RMK AO2 RAE25 SLP151 OCNL LTGIC DSNT SW CB DSNT SW P0004 T02670250 403330228
KCHS 120431Z VRB03KT 10SM SCT022 BKN047 BKN055 27/24 A2998 RMK AO2 RAE25 OCNL LTGIC DSNT SW CB DSNT SW P0004 T02720244
KCHS 120356Z 13009KT 7SM RA BKN021 OVC042 27/24 A2999 RMK AO2 RAB40 SLP155 OCNL LTGIC DSNT NW CB DSNT NW P0001 T02720244
KCHS 120354Z 12009KT 7SM RA BKN021 OVC042 27/24 A2999 RMK AO2 RAB40 OCNL LTGIC DSNT NW CB DSNT NW P0000
KCHS 120256Z 21008KT 10SM FEW040 SCT070 27/24 A2999 RMK AO2 SLP154 FRQ LTGIC DSNT NW CB DSNT NW T02720239 51014
KCHS 120156Z 21005KT 10SM SCT045 BKN065 27/24 A2998 RMK AO2 SLP152 FRQ LTGIC DSNT W-NW CB DSNT W-NW T02670239
KCHS 120056Z 18005KT 10SM FEW040 SCT065 BKN085 26/24 A2996 RMK AO2 SLP146 T02610239
KCHS 112356Z 19008KT 10SM FEW035 SCT050 SCT085 27/23 A2995 RMK AO2 TSE04 SLP140 60025 T02670233 10333 20267 53006
KCHS 112321Z 22004KT 10SM FEW015 SCT035 SCT085 27/24 A2994 RMK AO2 TSE04 CB DSNT W T02670244
KCHS 112304Z 20009KT 10SM VCTS FEW015CB SCT035 SCT050 27/24 A2994 RMK AO2 LTG DSNT NW TSE04 OCNL LTGIC W-NW TS VC W-NW MOV S T02720239
KCHS 112256Z 23007KT 10SM TS FEW017CB SCT030 BKN050 27/24 A2994 RMK AO2 RAB11E47 TSB40 SLP137 OCNL LTGIC W-NW TS W-NW MOV S P0025 T02720244
KCHS 112245Z 22010KT 10SM -TSRA FEW017CB SCT030 SCT200 27/24 A2993 RMK AO2 RAB11 TSB40 OCNL LTGIC NW TS NW MOV S P0025 T02720244
KCHS 112156Z 13011KT 10SM BKN040 BKN055 BKN150 31/24 A2993 RMK AO2 SLP133 CB DSNT NE T03110239
KCHS 112056Z 25007KT 10SM SCT045 BKN150 33/23 A2993 RMK AO2 LTG DSNT NE SLP134 CB DSNT NE T03280228 56021
KCHS 111956Z VRB06KT 10SM SCT040 BKN050 BKN150 32/23 A2995 RMK AO2 SLP140 T03170228
KCHS 111856Z 23008KT 10SM SCT040 BKN150 32/23 A2996 RMK AO2 SLP145 T03220228
KCHS 111756Z 23005KT 10SM SCT035 SCT170 31/22 A2999 RMK AO2 SLP155 T03060222 10317 20239 56011
KCHS 111656Z 23005KT 10SM FEW055 SCT150 31/23 A3000 RMK AO2 SLP159 T03060233
KCHS 111556Z 28004KT 10SM FEW070 SCT150 29/22 A3001 RMK AO2 SLP162 T02940222
KCHS 111456Z 31006KT 10SM SCT120 28/22 A3002 RMK AO2 SLP166 T02830217 50008
KCHS 111356Z 26006KT 10SM SCT120 26/22 A3003 RMK AO2 SLP167 T02610217
KCHS 111256Z 27006KT 10SM SCT150 SCT220 26/22 A3002 RMK AO2 SLP164 T02610217
KCHS 111156Z 28004KT 10SM SCT120 SCT220 24/22 A3000 RMK AO2 SLP158 70001 T02390217 10244 20228 51008
KCHS 111056Z 00000KT 10SM SCT040 BKN170 23/22 A2999 RMK AO2 SLP156 T02330222
KCHS 110956Z 29004KT 10SM FEW040 FEW100 BKN170 23/22 A2999 RMK AO2 SLP156 T02330217
KCHS 110856Z 20003KT 10SM FEW040 SCT150 23/21 A2998 RMK AO2 SLP150 T02280211 58010
KCHS 110756Z 36006KT 10SM FEW070 FEW100 BKN200 23/22 A2998 RMK AO2 SLP152 T02280217
KCHS 110656Z 28004KT 10SM FEW075 SCT110 BKN220 24/22 A3000 RMK AO2 SLP158 T02390217
KCHS 110556Z 00000KT 10SM FEW080 FEW120 OVC180 24/22 A3001 RMK AO2 SLP160 60001 T02390222 10283 20228 55003
KCHS 110456Z 14004KT 10SM FEW150 BKN200 23/22 A3000 RMK AO2 SLP157 T02330217 403330228
KCHS 110356Z 07004KT 10SM FEW040 FEW120 BKN200 23/22 A3000 RMK AO2 LTG DSNT E RAE08 TSE14 SLP157 CB DSNT E P0000 T02330217
KCHS 110314Z 36005KT 10SM FEW040 FEW095 FEW120 23/22 A3000 RMK AO2 LTG DSNT SE AND S RAE08 TSE14 CB DSNT SE AND S P0000 T02280217
KCHS 110256Z 01008KT 8SM -TSRA SCT025CB BKN040 OVC110 23/22 A3001 RMK AO2 PK WND 29032/0211 WSHFT 0211 LTG DSNT NE-S RAB14 TSB25 PRESFR SLP163 FRQ LTGICCG NE-SE TS NE-SE MOV E P0001 60001 T02280217 53007
KCHS 110225Z 32012G21KT 7SM -TSRA SCT015CB BKN035 OVC060 24/22 A3003 RMK AO2 PK WND 29032/0211 WSHFT 0211 LTG DSNT N RAB14 TSB25 FRQ LTGIC W-N-NE TS W-N-NE MOV E P0000 T02390217
KCHS 110218Z 28015G32KT 7SM VCTS -RA SCT015 BKN020CB BKN030 25/21 A3004 RMK AO2 PK WND 29032/0211 LTG DSNT N AND W RAB14 FRQ LTGIC W-N-NE TS VC W-N-NE MOV E P0000 T02500211
KCHS 110156Z 20005KT 10SM VCTS SCT020CB SCT050 BKN200 28/24 A3001 RMK AO2 LTG DSNT SW-N SLP161 FRQ LTGIC SW-NW-N TS VC SW-NW-N MOV E T02780244
KCHS 110056Z 19006KT 10SM FEW025 BKN200 28/24 A2999 RMK AO2 SLP156 FRQ LTGICCC DSNT SW-NW-N CB DSNT SW-NW-N T02780239
KCHS 102356Z 19008KT 10SM FEW030 FEW120 SCT200 28/23 A2999 RMK AO2 SLP156 CB DSNT NW T02830233 10333 20283 53002
KCHS 102256Z 19009KT 10SM FEW030 SCT200 31/23 A2998 RMK AO2 LTG DSNT NW SLP151 CB DSNT NW T03060228
KCHS 102156Z 19010KT 10SM FEW030 FEW200 32/24 A2998 RMK AO2 SLP153 T03220239
KCHS 102056Z 20008KT 10SM SCT035 32/24 A2999 RMK AO2 SLP153 T03220239 56026
KCHS 101956Z 18009G17KT 10SM FEW030 SCT040 33/24 A2999 RMK AO2 SLP155 T03280244
KCHS 101856Z 20012KT 10SM BKN040 32/24 A3003 RMK AO2 SLP169 T03220244